KBUR/BUR METAR and TAF weather

Enter ICAO airport designator
Station Type Date Time Source
KBUR METAR 2018/10/22 16:53 UTC NOAA

KBUR 221653Z 00000KT 6SM HZ SCT011 17/14 A2994 RMK AO2 SLP127 T01670144


Station Type Date Time Source
KBUR Decoded METAR 2018/10/22 16:53 UTC NOAA

BURBANK-GLENDALE-PASADENA, CA, United States (KBUR) 34-12N 118-22W 217M
Oct 22, 2018 - 12:53 PM EDT / 2018.10.22 1653 UTC
Wind: Calm:0
Visibility: 6 mile(s):0
Sky conditions: partly cloudy
Weather: haze
Temperature: 62.1 F (16.7 C)
Dew Point: 57.9 F (14.4 C)
Relative Humidity: 86%
Pressure (altimeter): 29.94 in. Hg (1013 hPa)
ob: KBUR 221653Z 00000KT 6SM HZ SCT011 17/14 A2994 RMK AO2 SLP127 T01670144
cycle: 17

Station Type Date Time Source
KBUR TAF 2018/10/22 16:18 UTC NOAA

TAF
AMD KBUR 221615Z 2216/2312 VRB03KT 4SM BR OVC010
FM221700 14006KT P6SM SKC
FM222000 17010KT P6SM SKC
FM230300 12007KT P6SM SKC
FM231100 VRB03KT 5SM BR BKN007


Example: see airport list